S 386 Casilo — OZZP — position and weather

sailwx.info

Track history (hours):
 
Tides and Currents Weather Stations Pressure Air Temp Water Temp Dewpoint Dewpoint Depression Visibility Wind Speed Wind Dir Waves Ship Positions

S 386 Casilo

Last reported at 2014-Oct-01 21:31 UTC. Time now 2014-Oct-02 02:30 UTC.
Position N 58°16' E 010°14'.

Length 24 m.

Type: Fishing. MMSI: 219948000.

Date/timePositionNaut miles runAvg speedWind from/ knotsBaromVisibWave heightAir tempDewpointWater temp
2014-Oct-01 21:31N 58°16' E 010°14'6 6.4
2014-Oct-01 20:33N 58°19' E 010°24'1 1.2
2014-Oct-01 19:33N 58°18' E 010°23'2 2.0
2014-Oct-01 18:33N 58°17' E 010°21'2 1.9
2014-Oct-01 17:33N 58°16' E 010°17'2 2.0
2014-Oct-01 16:33N 58°15' E 010°14'4 0.4
2014-Oct-01 08:06N 58°12' E 010°16'5 8.9
2014-Oct-01 07:33N 58°13' E 010°25'9 9.3
2014-Oct-01 06:33N 58°16' E 010°42'9 9.2
2014-Oct-01 05:33N 58°19' E 010°59'8 7.9
2014-Oct-01 04:32N 58°21' E 011°14'0 0.0
2014-Oct-01 03:32N 58°21' E 011°14'6 6.5
2014-Oct-01 02:34N 58°19' E 011°02'9 9.0
2014-Oct-01 01:34N 58°18' E 010°45'9 8.8
2014-Oct-01 00:33N 58°18' E 010°29'2 2.3
2014-Sep-30 23:31N 58°18' E 010°24'2 1.9
2014-Sep-30 22:31N 58°16' E 010°22'2 2.0
2014-Sep-30 21:31N 58°16' E 010°18'2 2.0
2014-Sep-30 20:16N 58°15' E 010°14'2 2.0
2014-Sep-30 19:28N 58°14' E 010°11'4 2.0
2014-Sep-30 17:31N 58°12' E 010°04'6 1.8
2014-Sep-30 14:19N 58°09' E 009°55'2 2.0
2014-Sep-30 13:33N 58°08' E 009°52'6 5.4
2014-Sep-30 12:23N 58°11' E 010°03'8 9.3
2014-Sep-30 11:33N 58°14' E 010°17'1 0.7
2014-Sep-30 10:32N 58°14' E 010°15'2 1.9
2014-Sep-30 09:20N 58°13' E 010°12'2 1.9
2014-Sep-30 08:32N 58°12' E 010°09'2 1.9
2014-Sep-30 07:32N 58°12' E 010°06'2 2.0
2014-Sep-30 06:29N 58°11' E 010°02'2 2.0
2014-Sep-30 05:32N 58°10' E 009°59'2 1.9
2014-Sep-30 04:32N 58°09' E 009°56'2 2.0
2014-Sep-30 03:29N 58°08' E 009°53'2 1.9
2014-Sep-30 02:32N 58°07' E 009°50'2 2.3
2014-Sep-30 01:33N 58°05' E 009°46'7 7.3
2014-Sep-30 00:33N 58°09' E 009°58'9 9.3
2014-Sep-29 23:33N 58°13' E 010°14'0 0.5
2014-Sep-29 22:33N 58°14' E 010°13'2 2.0
2014-Sep-29 21:33N 58°12' E 010°10'2 2.0
2014-Sep-29 20:33N 58°12' E 010°07'2 1.9
2014-Sep-29 19:24N 58°11' E 010°03'2 1.9
2014-Sep-29 18:33N 58°10' E 010°01'2 1.9
2014-Sep-29 17:33N 58°09' E 009°58'2 2.0
2014-Sep-29 16:30N 58°08' E 009°54'34 3.1
2014-Sep-29 05:33N 57°46' E 010°44'8 8.1
2014-Sep-29 04:33N 57°54' E 010°50'8 8.1
2014-Sep-29 03:33N 58°01' E 010°56'8 8.1
2014-Sep-29 02:34N 58°08' E 011°03'8 7.7
2014-Sep-29 01:33N 58°15' E 011°09'6 6.3
2014-Sep-29 00:32N 58°21' E 011°14'0 0.0
2014-Sep-28 23:32N 58°21' E 011°14'6 6.0
2014-Sep-28 22:33N 58°18' E 011°04'9 8.9
2014-Sep-28 21:33N 58°15' E 010°48'9 9.0
2014-Sep-28 20:33N 58°13' E 010°31'9 9.1
2014-Sep-28 19:33N 58°10' E 010°15'3 0.3
2014-Sep-28 08:30N 58°11' E 010°20'4 4.0
2014-Sep-28 07:33N 58°13' E 010°27'2 1.5
2014-Sep-28 06:33N 58°13' E 010°24'2 1.9
2014-Sep-28 05:27N 58°12' E 010°20'2 1.9
2014-Sep-28 04:27N 58°11' E 010°17'2 1.8
2014-Sep-28 03:24N 58°11' E 010°14'0 0.1
2014-Sep-27 21:30N 58°11' E 010°13'2 1.4
2014-Sep-27 20:08N 58°10' E 010°09'4 0.4
2014-Sep-27 09:32N 58°12' E 010°16'5 5.0
2014-Sep-27 08:32N 58°15' E 010°24'1 1.1
2014-Sep-27 07:32N 58°14' E 010°23'1 0.9
2014-Sep-27 06:32N 58°13' E 010°23'2 1.6
2014-Sep-27 05:32N 58°12' E 010°20'2 1.9
2014-Sep-27 04:23N 58°11' E 010°16'2 1.9
2014-Sep-27 03:29N 58°11' E 010°13'  
2014-Sep-24 16:23N 58°09' E 010°21'2 0.1
2014-Sep-23 01:18N 58°11' E 010°17'20 2.9
2014-Sep-22 18:31N 57°52' E 010°28'12 1.1
2014-Sep-22 07:33N 57°55' E 010°50'10 9.9
2014-Sep-22 06:31N 58°04' E 010°58'1110.4
2014-Sep-22 05:28N 58°14' E 011°08'8 8.6
2014-Sep-22 04:33N 58°21' E 011°14'0 0.0
2014-Sep-22 03:33N 58°21' E 011°14'4 4.1
2014-Sep-22 02:33N 58°18' E 011°10'6 5.9
2014-Sep-22 01:28N 58°14' E 011°01'5 6.0
2014-Sep-22 00:33N 58°10' E 010°53'6 5.6
2014-Sep-21 23:33N 58°06' E 010°45'3 2.9
2014-Sep-21 22:27N 58°03' E 010°43'  
Track history (hours):
 
Tides and Currents Weather Stations Pressure Air Temp Water Temp Dewpoint Dewpoint Depression Visibility Wind Speed Wind Dir Waves Ship Positions

S 386 Casilo

Last reported at 2014-Oct-01 21:31 UTC. Time now 2014-Oct-02 02:30 UTC.
Position N 58°16' E 010°14'.

Length 24 m.

Type: Fishing. MMSI: 219948000.

Date/timePositionNaut miles runAvg speedWind from/ knotsBaromVisibWave heightAir tempDewpointWater temp
2014-Oct-01 21:31N 58°16' E 010°14'6 6.4
2014-Oct-01 20:33N 58°19' E 010°24'1 1.2
2014-Oct-01 19:33N 58°18' E 010°23'2 2.0
2014-Oct-01 18:33N 58°17' E 010°21'2 1.9
2014-Oct-01 17:33N 58°16' E 010°17'2 2.0
2014-Oct-01 16:33N 58°15' E 010°14'4 0.4
2014-Oct-01 08:06N 58°12' E 010°16'5 8.9
2014-Oct-01 07:33N 58°13' E 010°25'9 9.3
2014-Oct-01 06:33N 58°16' E 010°42'9 9.2
2014-Oct-01 05:33N 58°19' E 010°59'8 7.9
2014-Oct-01 04:32N 58°21' E 011°14'0 0.0
2014-Oct-01 03:32N 58°21' E 011°14'6 6.5
2014-Oct-01 02:34N 58°19' E 011°02'9 9.0
2014-Oct-01 01:34N 58°18' E 010°45'9 8.8
2014-Oct-01 00:33N 58°18' E 010°29'2 2.3
2014-Sep-30 23:31N 58°18' E 010°24'2 1.9
2014-Sep-30 22:31N 58°16' E 010°22'2 2.0
2014-Sep-30 21:31N 58°16' E 010°18'2 2.0
2014-Sep-30 20:16N 58°15' E 010°14'2 2.0
2014-Sep-30 19:28N 58°14' E 010°11'4 2.0
2014-Sep-30 17:31N 58°12' E 010°04'6 1.8
2014-Sep-30 14:19N 58°09' E 009°55'2 2.0
2014-Sep-30 13:33N 58°08' E 009°52'6 5.4
2014-Sep-30 12:23N 58°11' E 010°03'8 9.3
2014-Sep-30 11:33N 58°14' E 010°17'1 0.7
2014-Sep-30 10:32N 58°14' E 010°15'2 1.9
2014-Sep-30 09:20N 58°13' E 010°12'2 1.9
2014-Sep-30 08:32N 58°12' E 010°09'2 1.9
2014-Sep-30 07:32N 58°12' E 010°06'2 2.0
2014-Sep-30 06:29N 58°11' E 010°02'2 2.0
2014-Sep-30 05:32N 58°10' E 009°59'2 1.9
2014-Sep-30 04:32N 58°09' E 009°56'2 2.0
2014-Sep-30 03:29N 58°08' E 009°53'2 1.9
2014-Sep-30 02:32N 58°07' E 009°50'2 2.3
2014-Sep-30 01:33N 58°05' E 009°46'7 7.3
2014-Sep-30 00:33N 58°09' E 009°58'9 9.3
2014-Sep-29 23:33N 58°13' E 010°14'0 0.5
2014-Sep-29 22:33N 58°14' E 010°13'2 2.0
2014-Sep-29 21:33N 58°12' E 010°10'2 2.0
2014-Sep-29 20:33N 58°12' E 010°07'2 1.9
2014-Sep-29 19:24N 58°11' E 010°03'2 1.9
2014-Sep-29 18:33N 58°10' E 010°01'2 1.9
2014-Sep-29 17:33N 58°09' E 009°58'2 2.0
2014-Sep-29 16:30N 58°08' E 009°54'34 3.1
2014-Sep-29 05:33N 57°46' E 010°44'8 8.1
2014-Sep-29 04:33N 57°54' E 010°50'8 8.1
2014-Sep-29 03:33N 58°01' E 010°56'8 8.1
2014-Sep-29 02:34N 58°08' E 011°03'8 7.7
2014-Sep-29 01:33N 58°15' E 011°09'6 6.3
2014-Sep-29 00:32N 58°21' E 011°14'0 0.0
2014-Sep-28 23:32N 58°21' E 011°14'6 6.0
2014-Sep-28 22:33N 58°18' E 011°04'9 8.9
2014-Sep-28 21:33N 58°15' E 010°48'9 9.0
2014-Sep-28 20:33N 58°13' E 010°31'9 9.1
2014-Sep-28 19:33N 58°10' E 010°15'3 0.3
2014-Sep-28 08:30N 58°11' E 010°20'4 4.0
2014-Sep-28 07:33N 58°13' E 010°27'2 1.5
2014-Sep-28 06:33N 58°13' E 010°24'2 1.9
2014-Sep-28 05:27N 58°12' E 010°20'2 1.9
2014-Sep-28 04:27N 58°11' E 010°17'2 1.8
2014-Sep-28 03:24N 58°11' E 010°14'0 0.1
2014-Sep-27 21:30N 58°11' E 010°13'2 1.4
2014-Sep-27 20:08N 58°10' E 010°09'4 0.4
2014-Sep-27 09:32N 58°12' E 010°16'5 5.0
2014-Sep-27 08:32N 58°15' E 010°24'1 1.1
2014-Sep-27 07:32N 58°14' E 010°23'1 0.9
2014-Sep-27 06:32N 58°13' E 010°23'2 1.6
2014-Sep-27 05:32N 58°12' E 010°20'2 1.9
2014-Sep-27 04:23N 58°11' E 010°16'2 1.9
2014-Sep-27 03:29N 58°11' E 010°13'  
2014-Sep-24 16:23N 58°09' E 010°21'2 0.1
2014-Sep-23 01:18N 58°11' E 010°17'20 2.9
2014-Sep-22 18:31N 57°52' E 010°28'12 1.1
2014-Sep-22 07:33N 57°55' E 010°50'10 9.9
2014-Sep-22 06:31N 58°04' E 010°58'1110.4
2014-Sep-22 05:28N 58°14' E 011°08'8 8.6
2014-Sep-22 04:33N 58°21' E 011°14'0 0.0
2014-Sep-22 03:33N 58°21' E 011°14'4 4.1
2014-Sep-22 02:33N 58°18' E 011°10'6 5.9
2014-Sep-22 01:28N 58°14' E 011°01'5 6.0
2014-Sep-22 00:33N 58°10' E 010°53'6 5.6
2014-Sep-21 23:33N 58°06' E 010°45'3 2.9
2014-Sep-21 22:27N 58°03' E 010°43'  

Dump ship's entire track history